Portada
METAR-TAF:

METAR-TAF

Aeroports :

Ilo, Perú

latitud: 17-41-45S, longitud: 071-20-35W, altitud: 22 m

Observació

L'informe es va fer fa 1 hora i 9 minuts, a les 17:00 UTC
Vent 8 kt del Oest/Sud-Oest
Temperatura 20°C
Humitat 73%
Pressió 1017 hPa
Visibilitat 10 km o més
Cel cobert a una alçada de 2500 ft

METAR: SPLO 231700Z 24008KT 9999 OVC025 20/15 Q1017 RMK PP000

Hora: 13:09 (18:09 UTC)

Pronòstic

L'informe es va fer fa 1 hora i 9 minuts, a les 17:00 UTC
Pronòstic vàlid del 23 a les 18 UTC al 24 a les 18 UTC
Vent 8 kt del Sud/Sud-Est
Visibilitat: 9000 m
Cel ennuvolat a una alçada de 3000 ft

TAF: SPLO 231700Z 2318/2418 16008KT 9000 BKN030 TX21/2319Z TN15/2411Z

Observacions i pronòstics meteorològics de més de 4000 aeroports (METAR i TAF).

Les estacions disponibles són els punts grocs i vermells al mapa.

Posi el ratolí al punt desitjat per veure el nom de l'estació.

Feu clic per veure les observacions i els pronòstics meteorològics.

Per canviar el mapa: feu clic els botons verds amb una creu de color negre per apropar; al botó verd amb un guió per allunyar la imatge; o en les fletxes verdes per a mapes adjacents.


METAR-TAF: